createdAt,value
2023-03-06T00:02:17.687Z,99.90
2023-03-06T00:05:20.984Z,99.90
2023-03-06T00:08:25.401Z,99.90
2023-03-06T00:11:28.381Z,99.90
2023-03-06T00:14:31.370Z,99.90
2023-03-06T00:17:34.468Z,99.90
2023-03-06T00:20:39.616Z,99.90
2023-03-06T00:23:43.109Z,99.90
2023-03-06T00:26:45.893Z,99.90
2023-03-06T00:29:49.997Z,99.90
2023-03-06T00:32:54.217Z,99.90
2023-03-06T00:35:57.443Z,99.90
2023-03-06T00:39:00.505Z,99.90
2023-03-06T00:42:03.800Z,99.90
2023-03-06T00:45:07.388Z,99.90
2023-03-06T00:48:11.819Z,99.90
2023-03-06T00:51:15.009Z,99.90
2023-03-06T00:54:17.997Z,99.90
2023-03-06T00:57:21.189Z,99.90
2023-03-06T01:00:24.280Z,99.90
2023-03-06T01:03:27.265Z,99.90
2023-03-06T01:06:30.560Z,99.90
2023-03-06T01:09:34.068Z,99.90
2023-03-06T01:12:36.638Z,99.90
2023-03-06T01:15:39.316Z,99.90
2023-03-06T01:18:43.018Z,99.90
2023-03-06T01:21:46.419Z,99.90
2023-03-06T01:24:49.509Z,99.90
2023-03-06T01:27:53.521Z,99.90
2023-03-06T01:30:56.811Z,99.90
2023-03-06T01:33:59.902Z,99.90
2023-03-06T01:37:02.791Z,99.90
2023-03-06T01:40:07.516Z,99.90
2023-03-06T01:43:32.836Z,99.90
2023-03-06T01:46:42.484Z,99.90
2023-03-06T01:49:45.680Z,99.90
2023-03-06T01:52:54.483Z,99.90
2023-03-06T01:55:57.482Z,99.90
2023-03-06T01:59:02.111Z,99.90
2023-03-06T02:02:09.237Z,99.90
2023-03-06T02:05:13.211Z,99.90
2023-03-06T02:08:19.475Z,99.90
2023-03-06T02:11:26.904Z,99.90
2023-03-06T02:14:30.566Z,99.90
2023-03-06T02:17:35.916Z,99.90
2023-03-06T02:20:46.477Z,99.90
2023-03-06T02:23:54.992Z,99.90
2023-03-06T02:27:00.039Z,99.90
2023-03-06T02:30:08.136Z,99.90
2023-03-06T02:33:16.453Z,99.90
2023-03-06T02:36:19.539Z,99.90
2023-03-06T02:39:26.418Z,99.90
2023-03-06T02:42:29.828Z,99.90
2023-03-06T02:45:49.241Z,99.90
2023-03-06T02:48:52.281Z,99.90
2023-03-06T02:51:55.565Z,99.90
2023-03-06T02:54:58.660Z,99.90
2023-03-06T02:58:02.265Z,99.90
2023-03-06T03:01:05.857Z,99.90
2023-03-06T03:04:09.612Z,99.90
2023-03-06T03:07:12.862Z,99.90
2023-03-06T03:10:16.364Z,99.90
2023-03-06T03:13:19.965Z,99.90
2023-03-06T03:16:23.158Z,99.90
2023-03-06T03:19:26.245Z,99.90
2023-03-06T03:22:29.645Z,99.90
2023-03-06T03:25:32.838Z,99.90
2023-03-06T03:28:36.332Z,99.90
2023-03-06T03:31:39.436Z,99.90
2023-03-06T03:34:42.836Z,99.90
2023-03-06T03:37:46.224Z,99.90
2023-03-06T03:40:49.422Z,99.90
2023-03-06T03:43:52.924Z,99.90
2023-03-06T03:46:55.910Z,99.90
2023-03-06T03:49:59.209Z,99.90
2023-03-06T03:53:02.294Z,99.90
2023-03-06T03:56:06.512Z,99.90
2023-03-06T03:59:10.521Z,99.90
2023-03-06T04:02:13.538Z,99.90
2023-03-06T04:05:17.326Z,99.90
2023-03-06T04:08:21.326Z,99.90
2023-03-06T04:11:25.027Z,99.90
2023-03-06T04:14:28.218Z,99.90
2023-03-06T04:17:34.284Z,99.90
2023-03-06T04:20:37.678Z,99.90
2023-03-06T04:23:41.081Z,99.90
2023-03-06T04:26:44.168Z,99.90
2023-03-06T04:29:47.155Z,99.90
2023-03-06T04:32:50.353Z,99.90
2023-03-06T04:35:53.810Z,99.90
2023-03-06T04:38:57.317Z,99.90
2023-03-06T04:42:00.437Z,99.90
2023-03-06T04:45:03.531Z,99.90
2023-03-06T04:48:09.592Z,99.90
2023-03-06T04:51:14.238Z,99.90
2023-03-06T04:54:18.994Z,99.90
2023-03-06T04:57:22.756Z,99.90
2023-03-06T05:00:31.922Z,99.90
2023-03-06T05:03:35.188Z,99.90
2023-03-06T05:06:38.272Z,99.90
2023-03-06T05:09:41.676Z,99.90
2023-03-06T05:12:44.961Z,99.90
2023-03-06T05:15:48.052Z,99.90
2023-03-06T05:18:51.142Z,99.90
2023-03-06T05:21:54.225Z,99.90
2023-03-06T05:24:57.337Z,99.90
2023-03-06T05:28:00.204Z,99.90
2023-03-06T05:31:03.606Z,99.90
2023-03-06T05:34:06.887Z,99.90
2023-03-06T05:37:10.192Z,99.90
2023-03-06T05:40:13.815Z,99.90
2023-03-06T05:43:17.088Z,99.90
2023-03-06T05:46:20.199Z,99.90
2023-03-06T05:49:23.483Z,99.90
2023-03-06T05:52:27.187Z,99.90
2023-03-06T05:55:30.591Z,99.90
2023-03-06T05:58:35.011Z,99.90
2023-03-06T06:01:37.888Z,99.90
2023-03-06T06:04:41.184Z,99.90
2023-03-06T06:07:44.066Z,99.90
2023-03-06T06:10:47.054Z,99.90
2023-03-06T06:13:50.260Z,99.90
2023-03-06T06:16:53.444Z,99.90
2023-03-06T06:19:56.631Z,99.90
2023-03-06T06:22:59.840Z,99.90
2023-03-06T06:26:08.138Z,99.90
2023-03-06T06:29:12.666Z,99.90
2023-03-06T06:32:15.896Z,99.90
2023-03-06T06:35:19.303Z,99.90
2023-03-06T06:38:22.447Z,99.90
2023-03-06T06:41:46.187Z,99.90
2023-03-06T06:44:50.741Z,99.90
2023-03-06T06:47:53.884Z,99.90
2023-03-06T06:50:58.461Z,99.90
2023-03-06T06:54:02.069Z,99.90
2023-03-06T06:57:05.251Z,99.90
2023-03-06T07:00:09.801Z,99.90
2023-03-06T07:03:13.480Z,99.90
2023-03-06T07:06:16.779Z,99.90
2023-03-06T07:09:20.581Z,99.90
2023-03-06T07:12:23.982Z,99.90
2023-03-06T07:15:27.486Z,99.90
2023-03-06T07:18:30.989Z,99.90
2023-03-06T07:21:34.606Z,99.90
2023-03-06T07:24:37.484Z,99.90
2023-03-06T07:27:40.991Z,99.90
2023-03-06T07:30:44.667Z,99.90
2023-03-06T07:33:48.700Z,99.90
2023-03-06T07:36:51.882Z,99.90
2023-03-06T07:39:55.077Z,99.90
2023-03-06T07:43:12.839Z,99.90
2023-03-06T07:46:16.684Z,99.90
2023-03-06T07:49:19.914Z,99.90
2023-03-06T07:52:23.927Z,99.90
2023-03-06T07:55:27.424Z,99.90
2023-03-06T07:58:30.948Z,99.90
2023-03-06T08:01:34.237Z,99.90
2023-03-06T08:04:37.436Z,99.70
2023-03-06T08:07:40.505Z,99.90
2023-03-06T08:10:49.436Z,98.80
2023-03-06T08:13:53.242Z,99.80
2023-03-06T08:16:56.944Z,97.20
2023-03-06T08:20:06.190Z,97.30
2023-03-06T08:23:09.881Z,98.80
2023-03-06T08:26:20.244Z,96.60
2023-03-06T08:29:23.635Z,96.80
2023-03-06T08:32:27.244Z,92.50
2023-03-06T08:35:30.491Z,94.80
2023-03-06T08:38:34.241Z,95.40
2023-03-06T08:41:38.461Z,95.10
2023-03-06T08:44:41.447Z,95.20
2023-03-06T08:47:44.654Z,94.60
2023-03-06T08:50:47.726Z,92.10
2023-03-06T08:53:52.156Z,91.20
2023-03-06T08:56:55.673Z,90.90
2023-03-06T08:59:58.841Z,81.00
2023-03-06T09:03:02.038Z,74.00
2023-03-06T09:06:05.126Z,75.50
2023-03-06T09:09:09.662Z,77.90
2023-03-06T09:12:12.761Z,73.10
2023-03-06T09:15:16.067Z,68.60
2023-03-06T09:18:19.234Z,60.30
2023-03-06T09:21:25.907Z,63.80
2023-03-06T09:24:28.905Z,63.60
2023-03-06T09:27:32.096Z,57.70
2023-03-06T09:30:35.346Z,51.90
2023-03-06T09:33:38.888Z,48.90
2023-03-06T09:36:55.623Z,57.60
2023-03-06T09:39:59.935Z,56.90
2023-03-06T09:43:03.010Z,53.30
2023-03-06T09:46:40.919Z,57.30
2023-03-06T09:49:46.777Z,52.60
2023-03-06T09:53:12.192Z,50.80
2023-03-06T09:56:24.802Z,56.20
2023-03-06T09:59:29.119Z,61.50
2023-03-06T10:02:46.548Z,57.50
2023-03-06T10:06:14.833Z,64.40
2023-03-06T10:09:24.889Z,63.10
2023-03-06T10:12:32.291Z,64.80
2023-03-06T10:15:38.862Z,75.60
2023-03-06T10:18:41.963Z,69.80
2023-03-06T10:22:05.820Z,73.40
2023-03-06T10:25:28.369Z,78.20
2023-03-06T10:28:41.901Z,77.90
2023-03-06T10:31:49.767Z,76.60
2023-03-06T10:34:53.441Z,81.20
2023-03-06T10:38:16.580Z,76.10
2023-03-06T10:41:35.537Z,72.00
2023-03-06T10:44:38.727Z,85.00
2023-03-06T10:47:42.329Z,87.60
2023-03-06T10:50:45.315Z,79.50
2023-03-06T10:53:56.807Z,72.00
2023-03-06T10:57:35.738Z,78.00
2023-03-06T11:00:38.822Z,59.30
2023-03-06T11:03:41.925Z,56.20
2023-03-06T11:06:45.204Z,56.20
2023-03-06T11:10:22.403Z,53.40
2023-03-06T11:13:28.157Z,61.80
2023-03-06T11:16:31.581Z,60.40
2023-03-06T11:19:34.850Z,54.00
2023-03-06T11:22:41.367Z,64.00
2023-03-06T11:26:04.992Z,57.20
2023-03-06T11:29:33.120Z,69.00
2023-03-06T11:32:50.582Z,51.20
2023-03-06T11:36:39.870Z,52.50
2023-03-06T11:39:59.755Z,48.70
2023-03-06T11:43:28.549Z,66.30
2023-03-06T11:46:43.531Z,52.70
2023-03-06T11:49:53.063Z,59.90
2023-03-06T11:52:59.211Z,57.30
2023-03-06T11:56:31.893Z,66.80
2023-03-06T11:59:51.287Z,57.80
2023-03-06T12:03:23.164Z,61.00
2023-03-06T12:06:49.693Z,57.40
2023-03-06T12:10:19.920Z,59.30
2023-03-06T12:13:41.753Z,64.30
2023-03-06T12:16:59.073Z,58.00
2023-03-06T12:20:23.059Z,53.30
2023-03-06T12:23:56.053Z,55.50
2023-03-06T12:27:25.674Z,55.60
2023-03-06T12:30:57.730Z,56.90
2023-03-06T12:34:12.805Z,61.30
2023-03-06T12:37:37.293Z,57.60
2023-03-06T12:40:53.084Z,63.30
2023-03-06T12:44:04.158Z,60.50
2023-03-06T12:47:15.356Z,61.20
2023-03-06T12:50:33.897Z,60.90
2023-03-06T12:53:37.909Z,61.30
2023-03-06T12:56:42.647Z,66.70
2023-03-06T12:59:50.243Z,74.50
2023-03-06T13:03:47.191Z,66.70
2023-03-06T13:07:12.299Z,83.60
2023-03-06T13:10:30.961Z,71.50
2023-03-06T13:13:44.907Z,79.80
2023-03-06T13:16:48.553Z,73.30
2023-03-06T13:20:16.785Z,80.10
2023-03-06T13:23:41.284Z,77.30
2023-03-06T13:26:44.676Z,80.50
2023-03-06T13:29:53.199Z,80.60
2023-03-06T13:32:56.698Z,76.00
2023-03-06T13:36:19.756Z,74.60
2023-03-06T13:39:22.640Z,80.90
2023-03-06T13:42:57.784Z,80.10
2023-03-06T13:46:26.618Z,77.40
2023-03-06T13:49:31.000Z,84.40
2023-03-06T13:52:55.696Z,79.20
2023-03-06T13:56:22.739Z,79.00
2023-03-06T13:59:33.723Z,83.90
2023-03-06T14:03:05.072Z,81.00
2023-03-06T14:06:37.560Z,83.10
2023-03-06T14:09:46.322Z,79.30
2023-03-06T14:12:52.037Z,75.00
2023-03-06T14:15:56.392Z,75.20
2023-03-06T14:19:01.186Z,75.30
2023-03-06T14:22:07.452Z,76.80
2023-03-06T14:25:24.465Z,81.40
2023-03-06T14:28:30.218Z,80.30
2023-03-06T14:31:41.191Z,78.90
2023-03-06T14:34:47.359Z,78.80
2023-03-06T14:37:55.881Z,88.40
2023-03-06T14:40:59.175Z,86.10
2023-03-06T14:44:19.623Z,84.90
2023-03-06T14:47:31.364Z,84.10
2023-03-06T14:50:35.383Z,84.90
2023-03-06T14:53:38.460Z,90.90
2023-03-06T14:56:44.431Z,91.50
2023-03-06T15:00:19.217Z,90.10
2023-03-06T15:03:28.605Z,91.20
2023-03-06T15:06:40.668Z,92.00
2023-03-06T15:09:54.756Z,91.60
2023-03-06T15:13:09.227Z,89.00
2023-03-06T15:16:15.322Z,91.10
2023-03-06T15:19:20.506Z,90.00
2023-03-06T15:22:42.958Z,87.90
2023-03-06T15:26:00.275Z,92.30
2023-03-06T15:29:10.220Z,95.00
2023-03-06T15:32:34.982Z,98.50
2023-03-06T15:35:38.947Z,98.30
2023-03-06T15:38:44.625Z,99.50
2023-03-06T15:41:48.701Z,99.50
2023-03-06T15:44:55.180Z,99.70
2023-03-06T15:47:58.165Z,99.90
2023-03-06T15:51:02.936Z,99.90
2023-03-06T15:54:12.332Z,99.90
2023-03-06T15:57:31.638Z,99.90
2023-03-06T16:00:38.688Z,99.90
2023-03-06T16:03:42.087Z,99.90
2023-03-06T16:06:46.099Z,99.90
2023-03-06T16:09:49.394Z,99.90
2023-03-06T16:13:04.476Z,99.90
2023-03-06T16:16:11.206Z,99.90
2023-03-06T16:19:27.644Z,99.90
2023-03-06T16:22:31.041Z,99.90
2023-03-06T16:25:34.761Z,99.90
2023-03-06T16:28:40.921Z,99.90
2023-03-06T16:31:44.305Z,99.90
2023-03-06T16:34:47.894Z,99.90
2023-03-06T16:37:51.612Z,99.90
2023-03-06T16:40:55.001Z,99.90
2023-03-06T16:43:58.820Z,99.90
2023-03-06T16:47:02.219Z,99.90
2023-03-06T16:50:06.227Z,99.90
2023-03-06T16:53:10.658Z,99.90
2023-03-06T16:56:15.794Z,99.90
2023-03-06T16:59:21.178Z,99.90
2023-03-06T17:02:24.550Z,99.90
2023-03-06T17:05:29.073Z,99.90
2023-03-06T17:08:33.796Z,99.90
2023-03-06T17:11:43.229Z,99.90
2023-03-06T17:14:46.324Z,99.90
2023-03-06T17:17:51.976Z,99.90
2023-03-06T17:20:56.500Z,99.90
2023-03-06T17:24:01.989Z,99.90
2023-03-06T17:27:05.744Z,99.90
2023-03-06T17:30:10.272Z,99.90
2023-03-06T17:33:14.391Z,99.90
2023-03-06T17:36:19.729Z,99.90
2023-03-06T17:39:23.934Z,99.90
2023-03-06T17:42:28.063Z,99.90
2023-03-06T17:45:31.463Z,99.90
2023-03-06T17:48:36.305Z,99.90
2023-03-06T17:51:40.001Z,99.90
2023-03-06T17:54:44.117Z,99.90
2023-03-06T17:57:47.508Z,99.90
2023-03-06T18:00:51.624Z,99.90
2023-03-06T18:03:55.047Z,99.90
2023-03-06T18:06:58.824Z,99.90
2023-03-06T18:10:07.556Z,99.90
2023-03-06T18:13:12.588Z,99.90
2023-03-06T18:16:19.299Z,99.90
2023-03-06T18:19:22.870Z,99.90
2023-03-06T18:22:27.388Z,99.90
2023-03-06T18:25:33.240Z,99.90
2023-03-06T18:28:37.565Z,99.90
2023-03-06T18:31:43.159Z,99.90
2023-03-06T18:34:49.889Z,99.90
2023-03-06T18:37:54.308Z,99.90
2023-03-06T18:40:58.425Z,99.90
2023-03-06T18:44:02.672Z,99.90
2023-03-06T18:47:06.867Z,99.90
2023-03-06T18:50:13.430Z,99.90
2023-03-06T18:53:18.570Z,99.90
2023-03-06T18:56:23.505Z,99.90
2023-03-06T18:59:27.928Z,99.90
2023-03-06T19:02:32.347Z,99.90
2023-03-06T19:05:42.715Z,99.90
2023-03-06T19:08:47.037Z,99.90
2023-03-06T19:11:54.401Z,99.90
2023-03-06T19:14:59.362Z,99.90
2023-03-06T19:18:03.586Z,99.90
2023-03-06T19:21:18.542Z,99.90
2023-03-06T19:24:24.109Z,99.90
2023-03-06T19:27:30.568Z,99.90
2023-03-06T19:30:34.893Z,99.90
2023-03-06T19:33:39.003Z,99.90
2023-03-06T19:36:42.815Z,99.90
2023-03-06T19:39:46.929Z,99.90
2023-03-06T19:42:51.761Z,99.90
2023-03-06T19:45:56.083Z,99.90
2023-03-06T19:49:02.606Z,99.90
2023-03-06T19:52:10.050Z,99.90
2023-03-06T19:55:15.185Z,99.90
2023-03-06T19:58:19.494Z,99.90
2023-03-06T20:01:26.411Z,99.90
2023-03-06T20:04:35.167Z,99.90
2023-03-06T20:07:39.302Z,99.90
2023-03-06T20:10:43.737Z,99.90
2023-03-06T20:13:48.273Z,99.90
2023-03-06T20:16:52.679Z,99.90
2023-03-06T20:19:57.199Z,99.90
2023-03-06T20:23:07.055Z,99.90
2023-03-06T20:26:14.758Z,99.90
2023-03-06T20:29:19.272Z,99.90
2023-03-06T20:32:24.056Z,99.90
2023-03-06T20:35:28.325Z,99.90
2023-03-06T20:38:32.434Z,99.90
2023-03-06T20:41:37.572Z,99.90
2023-03-06T20:44:41.682Z,99.90
2023-03-06T20:47:47.651Z,99.90
2023-03-06T20:51:04.561Z,99.90
2023-03-06T20:54:11.742Z,99.90
2023-03-06T20:57:15.351Z,99.90
2023-03-06T21:00:21.325Z,99.90
2023-03-06T21:03:25.618Z,99.90
2023-03-06T21:06:31.072Z,99.90
2023-03-06T21:09:39.808Z,99.90
2023-03-06T21:12:42.880Z,99.90
2023-03-06T21:15:48.151Z,99.90
2023-03-06T21:18:51.420Z,99.90
2023-03-06T21:21:54.726Z,99.90
2023-03-06T21:24:58.018Z,99.90
2023-03-06T21:28:01.518Z,99.90
2023-03-06T21:31:08.042Z,99.90
2023-03-06T21:34:12.305Z,99.90
2023-03-06T21:37:15.807Z,99.90
2023-03-06T21:40:19.520Z,99.90
2023-03-06T21:43:23.014Z,99.90
2023-03-06T21:46:27.545Z,99.90
2023-03-06T21:49:30.714Z,99.90
2023-03-06T21:52:33.407Z,99.90
2023-03-06T21:55:40.823Z,99.90
2023-03-06T21:58:44.208Z,99.90
2023-03-06T22:01:48.007Z,99.90
2023-03-06T22:04:52.936Z,99.90
2023-03-06T22:07:56.029Z,99.90
2023-03-06T22:10:58.920Z,99.90
2023-03-06T22:14:01.905Z,99.90
2023-03-06T22:17:05.438Z,99.90
2023-03-06T22:20:09.618Z,99.90
2023-03-06T22:23:13.247Z,99.90
2023-03-06T22:26:16.619Z,99.90
2023-03-06T22:29:19.918Z,99.90
2023-03-06T22:32:23.048Z,99.90
2023-03-06T22:35:26.508Z,99.90
2023-03-06T22:38:29.806Z,99.90
2023-03-06T22:41:33.194Z,99.90
2023-03-06T22:44:36.292Z,99.90
2023-03-06T22:47:39.688Z,99.90
2023-03-06T22:50:42.880Z,99.90
2023-03-06T22:53:47.204Z,99.90
2023-03-06T22:56:50.188Z,99.90
2023-03-06T22:59:53.889Z,99.90
2023-03-06T23:02:57.179Z,99.90
2023-03-06T23:05:59.968Z,99.90
2023-03-06T23:09:21.188Z,99.90
2023-03-06T23:12:24.483Z,99.90
2023-03-06T23:15:27.521Z,99.90
2023-03-06T23:18:31.173Z,99.90
2023-03-06T23:21:34.982Z,99.90
2023-03-06T23:24:38.079Z,99.90
2023-03-06T23:27:41.472Z,99.90
2023-03-06T23:30:44.921Z,99.90
2023-03-06T23:33:48.379Z,99.90
2023-03-06T23:36:51.666Z,99.90
2023-03-06T23:39:54.870Z,99.90
2023-03-06T23:42:57.955Z,99.90
2023-03-06T23:46:01.190Z,99.90
2023-03-06T23:49:04.438Z,99.90
2023-03-06T23:52:07.539Z,99.90
2023-03-06T23:55:10.925Z,99.90
2023-03-06T23:58:15.140Z,99.90
